Time;durP1;ratioP1;P1;durP2;ratioP2;P2;SDS_P1;SDS_P2;PMS_P1;PMS_P2;Temp;Humidity;BMP_temperature;BMP_pressure;BME280_temperature;BME280_humidity;BME280_pressure;Samples;Min_cycle;Max_cycle;Signal;HPM_P1;HPM_P2
2022/04/26 03:36:30;;;;;;;12.63;11.30;;;;;;;;;;5132660;27;20445;-77
2022/04/26 03:38:57;;;;;;;11.07;9.97;;;;;;;;;;5134719;27;20444;-77
2022/04/26 03:41:25;;;;;;;11.47;9.80;;;;;;;;;;5131313;27;21295;-77
2022/04/26 03:43:52;;;;;;;10.60;9.40;;;;;;;;;;5130315;27;20441;-77
2022/04/26 03:46:20;;;;;;;10.47;9.37;;;;;;;;;;5131859;27;20434;-77
2022/04/26 03:48:48;;;;;;;10.37;9.10;;;;;;;;;;5132495;27;20441;-77
2022/04/26 03:51:15;;;;;;;10.47;9.40;;;;;;;;;;5132877;27;21044;-78
2022/04/26 03:53:42;;;;;;;9.23;8.33;;;;;;;;;;5133545;27;20537;-76
2022/04/26 03:56:09;;;;;;;11.60;10.40;;;;;;;;;;5132233;27;20813;-76
2022/04/26 03:58:37;;;;;;;12.60;11.13;;;;;;;;;;5134748;27;20441;-77
2022/04/26 04:01:04;;;;;;;13.03;11.63;;;;;;;;;;5134467;27;20454;-77
2022/04/26 04:03:32;;;;;;;13.37;11.80;;;;;;;;;;5131983;27;21464;-76
2022/04/26 04:06:00;;;;;;;12.37;11.07;;;;;;;;;;5130162;27;20434;-77
2022/04/26 04:08:27;;;;;;;16.13;13.10;;;;;;;;;;5131458;27;20469;-78
2022/04/26 04:10:54;;;;;;;14.23;12.60;;;;;;;;;;5132357;27;20457;-77
2022/04/26 04:13:21;;;;;;;15.57;12.47;;;;;;;;;;5132849;28;20437;-78
2022/04/26 04:15:49;;;;;;;14.33;12.50;;;;;;;;;;5132790;28;20438;-77
2022/04/26 04:20:58;;;;;;;13.90;12.50;;;;;;;;;;5133628;28;20476;-78
2022/04/26 04:23:25;;;;;;;14.03;12.57;;;;;;;;;;5134749;28;20448;-78
2022/04/26 04:25:53;;;;;;;13.63;12.10;;;;;;;;;;5131752;28;20465;-77
2022/04/26 04:28:20;;;;;;;12.90;11.50;;;;;;;;;;5129761;28;20469;-76
2022/04/26 04:30:47;;;;;;;12.33;10.90;;;;;;;;;;5130762;28;21031;-77
2022/04/26 04:33:14;;;;;;;14.27;12.77;;;;;;;;;;5132259;28;20445;-77
2022/04/26 04:35:42;;;;;;;14.30;11.93;;;;;;;;;;5132361;28;20447;-78
2022/04/26 04:38:10;;;;;;;14.07;12.43;;;;;;;;;;5132749;28;20448;-78
2022/04/26 04:40:37;;;;;;;14.20;12.47;;;;;;;;;;5132442;28;20461;-76
2022/04/26 04:43:05;;;;;;;15.00;13.30;;;;;;;;;;5133214;28;20456;-78
2022/04/26 04:45:33;;;;;;;16.93;13.87;;;;;;;;;;5135462;27;20450;-77
2022/04/26 04:48:00;;;;;;;15.60;13.60;;;;;;;;;;5136842;27;20473;-76
2022/04/26 04:50:27;;;;;;;14.40;12.83;;;;;;;;;;5133548;27;20516;-77
2022/04/26 04:52:54;;;;;;;14.90;13.37;;;;;;;;;;5134448;27;20426;-77
2022/04/26 04:55:23;;;;;;;17.23;14.33;;;;;;;;;;5136135;27;20441;-76
2022/04/26 04:57:50;;;;;;;17.23;12.87;;;;;;;;;;5136144;27;20805;-76
2022/04/26 05:00:17;;;;;;;14.17;12.60;;;;;;;;;;5136069;27;20830;-77
2022/04/26 05:02:44;;;;;;;16.50;14.33;;;;;;;;;;5136681;27;20441;-77
2022/04/26 05:05:12;;;;;;;18.77;15.97;;;;;;;;;;5136613;27;20465;-77
2022/04/26 05:07:39;;;;;;;19.30;15.83;;;;;;;;;;5137902;27;20553;-77
2022/04/26 05:10:08;;;;;;;19.30;16.10;;;;;;;;;;5136599;27;20436;-78
2022/04/26 05:12:36;;;;;;;19.80;16.50;;;;;;;;;;5132019;27;20429;-78
2022/04/26 05:15:04;;;;;;;21.60;17.00;;;;;;;;;;5132791;27;20444;-78
2022/04/26 05:17:31;;;;;;;24.10;18.40;;;;;;;;;;5135638;27;20774;-77
2022/04/26 05:20:00;;;;;;;23.17;19.30;;;;;;;;;;5135682;27;20441;-75
2022/04/26 05:22:28;;;;;;;22.50;18.53;;;;;;;;;;5135662;27;20953;-76
2022/04/26 05:24:56;;;;;;;24.90;17.87;;;;;;;;;;5135853;27;20532;-75
2022/04/26 05:27:23;;;;;;;21.77;17.83;;;;;;;;;;5135931;27;20465;-77
2022/04/26 05:29:52;;;;;;;24.87;19.27;;;;;;;;;;5137324;27;20903;-75
2022/04/26 05:32:21;;;;;;;24.40;19.50;;;;;;;;;;5136693;27;20445;-76
2022/04/26 05:34:48;;;;;;;25.20;20.13;;;;;;;;;;5132722;27;20433;-76
2022/04/26 05:37:15;;;;;;;28.37;20.50;;;;;;;;;;5132816;27;20515;-76
2022/04/26 05:39:42;;;;;;;25.93;20.67;;;;;;;;;;5135038;27;20441;-76
2022/04/26 05:42:09;;;;;;;28.23;22.57;;;;;;;;;;5135150;27;20484;-75
2022/04/26 05:44:38;;;;;;;26.57;21.87;;;;;;;;;;5135318;27;20441;-79
2022/04/26 05:47:08;;;;;;;28.50;20.70;;;;;;;;;;5135387;27;20445;-77
2022/04/26 05:49:35;;;;;;;25.80;22.10;;;;;;;;;;5135545;27;20461;-77
2022/04/26 05:52:03;;;;;;;24.47;20.60;;;;;;;;;;5136726;27;20457;-79
2022/04/26 05:54:30;;;;;;;26.70;21.10;;;;;;;;;;5136976;27;20433;-78
2022/04/26 05:56:57;;;;;;;24.83;20.53;;;;;;;;;;5132626;27;20442;-81
2022/04/26 05:59:25;;;;;;;31.80;22.40;;;;;;;;;;5132843;27;20425;-78
2022/04/26 06:01:53;;;;;;;27.67;21.60;;;;;;;;;;5134052;27;20484;-79
2022/04/26 06:04:23;;;;;;;33.30;24.90;;;;;;;;;;5133662;27;20452;-77
2022/04/26 06:06:50;;;;;;;34.03;27.30;;;;;;;;;;5133113;27;20433;-76
2022/04/26 06:09:17;;;;;;;41.17;30.77;;;;;;;;;;5134274;27;20832;-76
2022/04/26 06:11:45;;;;;;;39.90;31.07;;;;;;;;;;5133963;27;20959;-78
2022/04/26 06:14:12;;;;;;;35.77;28.03;;;;;;;;;;5135652;27;20805;-79
2022/04/26 06:16:40;;;;;;;38.90;31.93;;;;;;;;;;5136473;27;20448;-79
2022/04/26 06:19:07;;;;;;;40.97;32.10;;;;;;;;;;5132863;27;20949;-81
2022/04/26 06:21:35;;;;;;;38.20;31.43;;;;;;;;;;5131802;27;20457;-76
2022/04/26 06:24:03;;;;;;;42.73;33.67;;;;;;;;;;5133382;27;20441;-80
2022/04/26 06:26:30;;;;;;;39.00;31.43;;;;;;;;;;5133976;27;20573;-78
2022/04/26 06:28:57;;;;;;;40.00;31.07;;;;;;;;;;5134067;27;20488;-76
2022/04/26 06:31:27;;;;;;;35.80;29.40;;;;;;;;;;5134510;27;20468;-78
2022/04/26 06:33:54;;;;;;;34.77;28.63;;;;;;;;;;5133357;27;20433;-76
2022/04/26 06:36:21;;;;;;;32.40;27.10;;;;;;;;;;5136224;27;20455;-77
2022/04/26 06:38:50;;;;;;;38.60;29.87;;;;;;;;;;5136267;27;20429;-77
2022/04/26 06:41:17;;;;;;;34.23;27.60;;;;;;;;;;5132931;27;20892;-76
2022/04/26 06:43:44;;;;;;;33.60;28.57;;;;;;;;;;5131433;27;20429;-77
2022/04/26 06:46:11;;;;;;;38.40;29.10;;;;;;;;;;5132857;27;20775;-78
2022/04/26 06:48:38;;;;;;;37.70;29.03;;;;;;;;;;5133468;27;20477;-77
2022/04/26 06:51:05;;;;;;;38.10;28.10;;;;;;;;;;5133593;27;20457;-78
2022/04/26 06:53:34;;;;;;;38.83;29.63;;;;;;;;;;5134306;27;20922;-78
2022/04/26 06:56:03;;;;;;;38.37;29.07;;;;;;;;;;5133617;27;20446;-77
2022/04/26 06:58:30;;;;;;;38.40;28.73;;;;;;;;;;5135022;27;20536;-77
2022/04/26 07:00:59;;;;;;;40.53;28.67;;;;;;;;;;5135671;27;20461;-77
2022/04/26 07:03:27;;;;;;;36.90;29.10;;;;;;;;;;5133658;27;20429;-77
2022/04/26 07:05:54;;;;;;;38.97;28.10;;;;;;;;;;5131020;27;20434;-79
2022/04/26 07:08:21;;;;;;;38.07;29.07;;;;;;;;;;5131566;27;20479;-78
2022/04/26 07:10:48;;;;;;;34.97;29.00;;;;;;;;;;5133242;27;20457;-76
2022/04/26 07:13:18;;;;;;;37.20;27.63;;;;;;;;;;5133291;27;20436;-78
2022/04/26 07:15:45;;;;;;;35.50;26.87;;;;;;;;;;5133294;27;20477;-76
2022/04/26 07:18:13;;;;;;;41.30;30.20;;;;;;;;;;5132582;27;20434;-75
2022/04/26 07:20:40;;;;;;;39.73;29.17;;;;;;;;;;5134312;27;20530;-76
2022/04/26 07:23:08;;;;;;;37.10;29.10;;;;;;;;;;5135466;27;20787;-74
2022/04/26 07:25:35;;;;;;;41.73;29.37;;;;;;;;;;5133632;27;20489;-77
2022/04/26 07:28:03;;;;;;;39.77;28.60;;;;;;;;;;5130554;27;20470;-76
2022/04/26 07:30:34;;;;;;;36.40;26.90;;;;;;;;;;5131536;27;20457;-75
2022/04/26 07:35:42;;;;;;;36.93;27.70;;;;;;;;;;5132439;27;20926;-75
2022/04/26 07:38:10;;;;;;;38.33;26.93;;;;;;;;;;5133399;27;20947;-75
2022/04/26 07:40:38;;;;;;;32.43;24.23;;;;;;;;;;5133061;27;20812;-76
2022/04/26 07:43:06;;;;;;;35.60;24.87;;;;;;;;;;5133789;27;20473;-78
2022/04/26 07:45:37;;;;;;;28.63;23.20;;;;;;;;;;5135193;27;20445;-77
2022/04/26 07:48:05;;;;;;;31.30;23.77;;;;;;;;;;5133482;27;21062;-77
2022/04/26 07:50:33;;;;;;;25.10;22.40;;;;;;;;;;5130038;27;20457;-77
2022/04/26 07:53:00;;;;;;;29.23;21.63;;;;;;;;;;5130802;27;20438;-78
2022/04/26 07:55:27;;;;;;;24.83;20.80;;;;;;;;;;5132726;27;20799;-78
2022/04/26 07:57:55;;;;;;;23.93;20.30;;;;;;;;;;5132431;27;20426;-78
2022/04/26 08:00:22;;;;;;;23.33;19.80;;;;;;;;;;5132611;27;20442;-76
2022/04/26 08:02:50;;;;;;;25.67;20.57;;;;;;;;;;5133003;27;20444;-77
2022/04/26 08:05:18;;;;;;;26.73;22.17;;;;;;;;;;5133170;27;20457;-77
2022/04/26 08:07:45;;;;;;;25.97;21.40;;;;;;;;;;5134392;27;20438;-77
2022/04/26 08:10:12;;;;;;;26.73;21.33;;;;;;;;;;5134237;27;21021;-78
2022/04/26 08:12:40;;;;;;;26.30;23.03;;;;;;;;;;5128970;27;20430;-78
2022/04/26 08:15:08;;;;;;;24.67;22.07;;;;;;;;;;5130471;28;20434;-76
2022/04/26 08:17:35;;;;;;;25.63;22.00;;;;;;;;;;5132107;28;20823;-77
2022/04/26 08:20:03;;;;;;;26.27;20.97;;;;;;;;;;5132455;27;20439;-78
2022/04/26 08:22:31;;;;;;;25.17;22.57;;;;;;;;;;5136784;27;20480;-77
2022/04/26 08:27:40;;;;;;;31.30;23.73;;;;;;;;;;5136795;27;20445;-78
2022/04/26 08:30:07;;;;;;;28.23;23.27;;;;;;;;;;5138420;27;20445;-78
2022/04/26 08:32:40;;;;;;;31.37;25.10;;;;;;;;;;5136741;27;20441;-78
2022/04/26 08:35:10;;;;;;;33.23;25.90;;;;;;;;;;5132830;27;20437;-78
2022/04/26 08:37:37;;;;;;;29.97;24.60;;;;;;;;;;5134695;27;20437;-79
2022/04/26 08:40:07;;;;;;;31.33;25.13;;;;;;;;;;5136370;27;20437;-78
2022/04/26 08:42:35;;;;;;;27.37;23.40;;;;;;;;;;5135836;27;20517;-78
2022/04/26 08:45:02;;;;;;;33.27;25.07;;;;;;;;;;5136180;27;20460;-79
2022/04/26 08:52:57;;;;;;;32.50;26.30;;;;;;;;;;5137885;27;20453;-77
2022/04/26 08:55:24;;;;;;;30.20;24.57;;;;;;;;;;5137089;27;20533;-77
2022/04/26 08:57:51;;;;;;;34.73;26.70;;;;;;;;;;5133647;27;20469;-81
2022/04/26 09:00:18;;;;;;;33.70;27.00;;;;;;;;;;5134001;27;20441;-78
2022/04/26 09:03:00;;;;;;;35.00;27.87;;;;;;;;;;5135857;27;20516;-78
2022/04/26 09:05:29;;;;;;;33.43;27.73;;;;;;;;;;5134280;27;20437;-80
2022/04/26 09:07:56;;;;;;;34.53;28.47;;;;;;;;;;5135705;27;20438;-79
2022/04/26 09:10:24;;;;;;;38.80;30.27;;;;;;;;;;5136409;27;20501;-80
2022/04/26 09:13:01;;;;;;;36.60;31.47;;;;;;;;;;5136565;27;20457;-79
2022/04/26 09:15:34;;;;;;;39.73;30.60;;;;;;;;;;5137765;27;20502;-80
2022/04/26 09:18:13;;;;;;;38.60;29.77;;;;;;;;;;5136641;27;20429;-80
2022/04/26 09:20:43;;;;;;;32.67;28.77;;;;;;;;;;5132705;27;20533;-79
2022/04/26 09:23:18;;;;;;;36.77;29.77;;;;;;;;;;5133747;27;20465;-79
2022/04/26 09:25:46;;;;;;;41.10;31.40;;;;;;;;;;5135283;27;20515;-80
2022/04/26 09:28:29;;;;;;;40.50;31.27;;;;;;;;;;5134067;27;20873;-77
2022/04/26 09:30:56;;;;;;;41.30;31.80;;;;;;;;;;5133931;27;20461;-79
2022/04/26 09:33:38;;;;;;;45.80;34.73;;;;;;;;;;5135757;27;20434;-77
2022/04/26 09:36:09;;;;;;;47.17;37.07;;;;;;;;;;5135625;27;20457;-78
2022/04/26 09:38:37;;;;;;;46.93;36.13;;;;;;;;;;5136297;27;20839;-78
2022/04/26 09:41:05;;;;;;;48.73;37.83;;;;;;;;;;5135257;27;20549;-79
2022/04/26 09:43:35;;;;;;;51.60;40.40;;;;;;;;;;5131619;27;20444;-79
2022/04/26 09:46:04;;;;;;;54.77;38.83;;;;;;;;;;5133694;27;20796;-78
2022/04/26 09:48:33;;;;;;;53.53;39.70;;;;;;;;;;5134836;27;20522;-79
2022/04/26 09:51:00;;;;;;;54.77;40.93;;;;;;;;;;5134764;27;20462;-79
2022/04/26 09:53:31;;;;;;;55.63;41.17;;;;;;;;;;5134977;27;20995;-78
2022/04/26 09:55:59;;;;;;;60.23;44.57;;;;;;;;;;5135154;27;20446;-78
2022/04/26 09:58:27;;;;;;;58.30;43.77;;;;;;;;;;5135830;27;20926;-78
2022/04/26 10:00:55;;;;;;;60.97;43.60;;;;;;;;;;5136905;27;20514;-78
2022/04/26 10:03:25;;;;;;;53.90;40.07;;;;;;;;;;5135510;27;20533;-77
2022/04/26 10:05:56;;;;;;;52.00;41.43;;;;;;;;;;5132232;27;20434;-79
2022/04/26 10:08:25;;;;;;;43.27;36.53;;;;;;;;;;5132625;27;20463;-80
2022/04/26 10:10:54;;;;;;;40.13;34.40;;;;;;;;;;5135206;27;20489;-79
2022/04/26 10:16:04;;;;;;;46.03;37.47;;;;;;;;;;5133356;27;20422;-78
2022/04/26 10:18:33;;;;;;;45.87;35.87;;;;;;;;;;5134705;27;20438;-78
2022/04/26 10:21:00;;;;;;;49.53;38.97;;;;;;;;;;5134071;27;20527;-77
2022/04/26 10:23:28;;;;;;;44.03;38.07;;;;;;;;;;5136700;27;20433;-77
2022/04/26 10:26:10;;;;;;;47.90;37.00;;;;;;;;;;5134916;27;20826;-78
2022/04/26 10:28:49;;;;;;;40.27;33.90;;;;;;;;;;5130855;27;20465;-76
2022/04/26 10:31:18;;;;;;;38.10;32.57;;;;;;;;;;5132491;27;20461;-76
2022/04/26 10:33:46;;;;;;;40.20;33.33;;;;;;;;;;5133927;27;20439;-75
2022/04/26 10:36:29;;;;;;;39.70;33.23;;;;;;;;;;5133987;27;20494;-76
2022/04/26 10:39:12;;;;;;;44.40;35.17;;;;;;;;;;5134186;27;20436;-76
2022/04/26 10:41:40;;;;;;;40.77;33.93;;;;;;;;;;5132679;27;20467;-76
2022/04/26 10:44:22;;;;;;;39.90;34.77;;;;;;;;;;5134720;27;20432;-76
2022/04/26 10:47:11;;;;;;;43.20;36.80;;;;;;;;;;5135870;27;20431;-76
2022/04/26 10:49:43;;;;;;;41.43;34.17;;;;;;;;;;5131765;27;20480;-75
2022/04/26 10:52:25;;;;;;;45.80;37.10;;;;;;;;;;5129805;27;20459;-75
2022/04/26 10:55:07;;;;;;;42.17;36.00;;;;;;;;;;5132305;27;20809;-75
2022/04/26 10:57:35;;;;;;;45.63;38.10;;;;;;;;;;5132572;27;20489;-76
2022/04/26 11:00:04;;;;;;;42.40;36.60;;;;;;;;;;5133514;27;20437;-74
2022/04/26 11:02:35;;;;;;;38.53;32.77;;;;;;;;;;5132816;27;20451;-77
2022/04/26 11:05:03;;;;;;;43.37;35.97;;;;;;;;;;5128804;27;21034;-77
2022/04/26 11:07:30;;;;;;;37.93;33.80;;;;;;;;;;5127621;27;20434;-78
2022/04/26 11:09:59;;;;;;;37.30;33.37;;;;;;;;;;5126657;27;20482;-77
2022/04/26 11:12:27;;;;;;;35.30;31.47;;;;;;;;;;5129516;27;20472;-77
2022/04/26 11:14:55;;;;;;;34.20;30.60;;;;;;;;;;5129610;27;20941;-76
2022/04/26 11:17:24;;;;;;;33.57;30.07;;;;;;;;;;5130091;27;20451;-76
2022/04/26 11:19:53;;;;;;;31.97;28.77;;;;;;;;;;5130215;27;20485;-76
2022/04/26 11:22:21;;;;;;;34.17;30.63;;;;;;;;;;5129951;27;20474;-77
2022/04/26 11:30:15;;;;;;;32.73;29.50;;;;;;;;;;5126602;27;20534;-77
2022/04/26 11:32:43;;;;;;;32.93;29.53;;;;;;;;;;5127264;27;20436;-77
2022/04/26 11:35:13;;;;;;;35.43;31.60;;;;;;;;;;5128462;27;20549;-76
2022/04/26 11:37:47;;;;;;;33.80;30.30;;;;;;;;;;5129265;27;20420;-77
2022/04/26 11:40:22;;;;;;;33.07;29.67;;;;;;;;;;5129575;27;20941;-77
2022/04/26 11:42:50;;;;;;;33.10;29.80;;;;;;;;;;5129733;27;20961;-76
2022/04/26 11:45:17;;;;;;;35.43;31.70;;;;;;;;;;5129787;27;20457;-77
2022/04/26 11:47:48;;;;;;;36.47;32.83;;;;;;;;;;5129940;27;20437;-76
2022/04/26 11:50:18;;;;;;;32.80;29.37;;;;;;;;;;5131531;27;20573;-77
2022/04/26 11:52:46;;;;;;;27.37;24.57;;;;;;;;;;5129045;27;20426;-76
2022/04/26 11:55:21;;;;;;;29.00;26.07;;;;;;;;;;5130478;27;20415;-76
2022/04/26 11:57:48;;;;;;;30.33;27.40;;;;;;;;;;5132373;27;20441;-76
2022/04/26 12:00:16;;;;;;;27.63;25.03;;;;;;;;;;5132216;27;20448;-77
2022/04/26 12:02:44;;;;;;;29.93;27.13;;;;;;;;;;5132273;27;20961;-77
2022/04/26 12:05:11;;;;;;;30.30;27.30;;;;;;;;;;5132698;27;20444;-77
2022/04/26 12:07:40;;;;;;;27.87;24.97;;;;;;;;;;5133024;27;20452;-76
2022/04/26 12:10:22;;;;;;;27.93;25.23;;;;;;;;;;5134467;27;20911;-78
2022/04/26 12:12:55;;;;;;;28.97;26.27;;;;;;;;;;5132889;27;20782;-76
2022/04/26 12:15:25;;;;;;;27.57;24.80;;;;;;;;;;5128554;27;20479;-77
2022/04/26 12:18:03;;;;;;;26.33;23.70;;;;;;;;;;5130426;28;20790;-77
2022/04/26 12:20:30;;;;;;;25.97;23.33;;;;;;;;;;5132397;28;20486;-79
2022/04/26 12:22:58;;;;;;;23.97;21.77;;;;;;;;;;5130941;28;20778;-77
2022/04/26 12:25:26;;;;;;;25.30;22.80;;;;;;;;;;5132106;28;20819;-77
2022/04/26 12:28:02;;;;;;;24.87;22.27;;;;;;;;;;5132598;28;20438;-77
2022/04/26 12:30:30;;;;;;;24.47;22.07;;;;;;;;;;5132819;28;20507;-77
2022/04/26 12:32:57;;;;;;;26.63;24.13;;;;;;;;;;5134407;28;20482;-76
2022/04/26 12:35:25;;;;;;;28.60;26.00;;;;;;;;;;5132182;28;20438;-76
2022/04/26 12:38:05;;;;;;;25.83;23.27;;;;;;;;;;5129469;28;20429;-75
2022/04/26 12:40:33;;;;;;;24.20;21.60;;;;;;;;;;5128783;28;20528;-79
2022/04/26 12:43:01;;;;;;;29.80;27.00;;;;;;;;;;5132045;28;20441;-75
2022/04/26 12:45:28;;;;;;;28.10;25.40;;;;;;;;;;5130631;28;20441;-77
2022/04/26 12:50:51;;;;;;;29.17;26.30;;;;;;;;;;5130254;28;20538;-77
2022/04/26 12:53:24;;;;;;;32.53;29.03;;;;;;;;;;5133329;28;20460;-76
2022/04/26 12:55:51;;;;;;;25.47;22.83;;;;;;;;;;5134247;28;20532;-78
2022/04/26 12:58:19;;;;;;;28.17;25.40;;;;;;;;;;5132430;28;20438;-77
2022/04/26 13:00:47;;;;;;;22.77;20.50;;;;;;;;;;5127989;28;21507;-76
2022/04/26 13:03:16;;;;;;;26.17;23.70;;;;;;;;;;5130315;28;20538;-75
2022/04/26 13:05:44;;;;;;;25.27;22.97;;;;;;;;;;5131636;27;20458;-78
2022/04/26 13:08:12;;;;;;;25.63;23.23;;;;;;;;;;5135628;27;20450;-76
2022/04/26 13:10:41;;;;;;;23.87;21.57;;;;;;;;;;5135678;27;20506;-79
2022/04/26 13:13:09;;;;;;;21.40;19.37;;;;;;;;;;5136035;27;20443;-77
2022/04/26 13:15:36;;;;;;;21.87;19.67;;;;;;;;;;5136526;27;20433;-77
2022/04/26 13:18:03;;;;;;;21.20;18.97;;;;;;;;;;5137598;27;20419;-77
2022/04/26 13:20:31;;;;;;;16.30;14.77;;;;;;;;;;5136452;27;20446;-76
2022/04/26 13:22:58;;;;;;;19.77;16.33;;;;;;;;;;5131999;27;20439;-76
2022/04/26 13:25:27;;;;;;;17.07;15.53;;;;;;;;;;5133365;27;20470;-77
2022/04/26 13:27:59;;;;;;;18.67;16.97;;;;;;;;;;5135289;27;20443;-77
2022/04/26 13:30:26;;;;;;;22.63;20.53;;;;;;;;;;5134717;27;20910;-76
2022/04/26 13:32:54;;;;;;;20.20;18.07;;;;;;;;;;5135629;27;20408;-76
2022/04/26 13:35:22;;;;;;;21.97;20.07;;;;;;;;;;5135838;27;20454;-77
2022/04/26 13:37:50;;;;;;;23.50;21.13;;;;;;;;;;5134613;27;20459;-76
2022/04/26 13:40:17;;;;;;;20.30;18.60;;;;;;;;;;5137371;27;20439;-76
2022/04/26 13:42:45;;;;;;;9.30;8.50;;;;;;;;;;5136515;27;20964;-76
2022/04/26 13:45:13;;;;;;;5.40;4.90;;;;;;;;;;5132411;27;20437;-75
2022/04/26 13:47:41;;;;;;;5.20;4.70;;;;;;;;;;5133307;27;20463;-76
2022/04/26 13:50:09;;;;;;;4.80;4.40;;;;;;;;;;5134397;27;20473;-78
2022/04/26 13:52:37;;;;;;;5.20;4.70;;;;;;;;;;5134717;27;20445;-77
2022/04/26 13:55:05;;;;;;;5.87;4.23;;;;;;;;;;5135111;27;20503;-79
2022/04/26 13:57:32;;;;;;;6.70;6.00;;;;;;;;;;5135079;27;20439;-78
2022/04/26 14:00:01;;;;;;;7.33;6.37;;;;;;;;;;5135319;27;20895;-75
2022/04/26 14:02:29;;;;;;;6.80;5.93;;;;;;;;;;5136943;27;20831;-75
2022/04/26 14:04:57;;;;;;;8.67;6.80;;;;;;;;;;5136742;27;20494;-73
2022/04/26 14:07:24;;;;;;;6.90;6.20;;;;;;;;;;5132399;27;20440;-78
2022/04/26 14:09:51;;;;;;;7.33;5.93;;;;;;;;;;5132355;27;20866;-78
2022/04/26 14:12:18;;;;;;;7.03;6.33;;;;;;;;;;5133997;27;20469;-79
2022/04/26 14:22:52;;;;;;;10.53;7.43;;;;;;;;;;5131750;27;20442;-78
2022/04/26 14:25:19;;;;;;;9.80;7.83;;;;;;;;;;5131651;27;20457;-84
2022/04/26 14:27:49;;;;;;;10.47;9.10;;;;;;;;;;5132768;27;20433;-78
2022/04/26 14:30:16;;;;;;;9.97;8.50;;;;;;;;;;5132686;27;20480;-79
2022/04/26 14:32:44;;;;;;;9.87;8.50;;;;;;;;;;5132624;27;20459;-77
2022/04/26 14:35:12;;;;;;;9.70;8.60;;;;;;;;;;5134208;27;20465;-75
2022/04/26 14:37:41;;;;;;;9.83;8.87;;;;;;;;;;5134484;27;20484;-75
2022/04/26 14:40:09;;;;;;;7.93;7.10;;;;;;;;;;5135029;27;20480;-76
2022/04/26 14:42:37;;;;;;;9.05;8.15;;;;;;;;;;5135816;27;20430;-76
2022/04/26 14:45:05;;;;;;;8.10;7.03;;;;;;;;;;5134986;27;20203;-76
2022/04/26 14:47:33;;;;;;;8.47;7.67;;;;;;;;;;5131117;27;20445;-77
2022/04/26 14:50:02;;;;;;;8.90;7.70;;;;;;;;;;5131788;27;20822;-75
2022/04/26 14:52:31;;;;;;;8.50;7.60;;;;;;;;;;5133624;27;20522;-77
2022/04/26 14:55:00;;;;;;;8.05;7.07;;;;;;;;;;5132943;27;20524;-78
2022/04/26 14:57:28;;;;;;;10.80;8.30;;;;;;;;;;5133893;27;20207;-76
2022/04/26 14:59:55;;;;;;;8.30;7.17;;;;;;;;;;5134063;27;20445;-79
2022/04/26 15:02:22;;;;;;;8.03;7.23;;;;;;;;;;5134194;27;20476;-78
2022/04/26 15:04:51;;;;;;;8.70;7.37;;;;;;;;;;5135793;27;20528;-76
2022/04/26 15:07:18;;;;;;;8.50;7.60;;;;;;;;;;5135375;27;20877;-78
2022/04/26 15:09:52;;;;;;;7.30;6.60;;;;;;;;;;5130890;27;20438;-77
2022/04/26 15:17:43;;;;;;;7.57;6.87;;;;;;;;;;5131040;27;20482;-77
2022/04/26 15:20:11;;;;;;;7.33;6.63;;;;;;;;;;5133451;27;20448;-76
2022/04/26 15:22:39;;;;;;;8.10;7.30;;;;;;;;;;5132640;27;20469;-78
2022/04/26 15:25:09;;;;;;;12.67;9.90;;;;;;;;;;5133689;27;20457;-78
2022/04/26 15:27:38;;;;;;;12.70;9.00;;;;;;;;;;5135376;27;20944;-78
2022/04/26 15:30:06;;;;;;;13.27;11.03;;;;;;;;;;5134907;27;20449;-78
2022/04/26 15:32:33;;;;;;;17.73;12.50;;;;;;;;;;5130582;27;20434;-80
2022/04/26 15:35:01;;;;;;;14.17;12.63;;;;;;;;;;5131195;27;20433;-78
2022/04/26 15:37:29;;;;;;;14.07;12.03;;;;;;;;;;5132457;27;20517;-78
2022/04/26 15:39:58;;;;;;;17.00;12.53;;;;;;;;;;5131317;27;20470;-80
2022/04/26 15:42:27;;;;;;;15.70;12.90;;;;;;;;;;5133117;27;20544;-79
2022/04/26 15:44:54;;;;;;;17.80;12.70;;;;;;;;;;5133442;27;20841;-79
2022/04/26 15:47:21;;;;;;;18.07;14.07;;;;;;;;;;5132873;27;20779;-77
2022/04/26 15:49:48;;;;;;;16.40;12.90;;;;;;;;;;5135066;27;20857;-77
2022/04/26 15:52:16;;;;;;;16.33;12.40;;;;;;;;;;5134852;27;20480;-76
2022/04/26 15:54:43;;;;;;;20.20;14.30;;;;;;;;;;5131363;27;20803;-77
2022/04/26 15:57:11;;;;;;;22.47;14.93;;;;;;;;;;5130244;27;20434;-75
2022/04/26 15:59:40;;;;;;;17.90;14.30;;;;;;;;;;5131975;27;20453;-77
2022/04/26 16:02:07;;;;;;;21.93;15.43;;;;;;;;;;5132269;27;20544;-76
2022/04/26 16:04:35;;;;;;;22.60;16.10;;;;;;;;;;5132639;27;20438;-77
2022/04/26 16:07:02;;;;;;;25.70;19.03;;;;;;;;;;5133342;27;20494;-78
2022/04/26 16:22:56;;;;;;;18.70;13.37;;;;;;;;;;5116158;28;20430;-77
2022/04/26 16:25:24;;;;;;;19.03;13.73;;;;;;;;;;5131741;28;20472;-77
2022/04/26 16:27:51;;;;;;;17.03;15.13;;;;;;;;;;5132764;28;20441;-77
2022/04/26 16:30:20;;;;;;;18.33;14.10;;;;;;;;;;5132653;28;20438;-76
2022/04/26 16:32:47;;;;;;;22.03;15.03;;;;;;;;;;5132652;28;20449;-77
2022/04/26 16:35:15;;;;;;;18.83;15.80;;;;;;;;;;5134496;28;20445;-78
2022/04/26 16:37:42;;;;;;;20.80;14.87;;;;;;;;;;5133645;28;20445;-77
2022/04/26 16:40:10;;;;;;;20.73;15.60;;;;;;;;;;5121951;27;20465;-78
2022/04/26 16:42:38;;;;;;;17.40;15.30;;;;;;;;;;5132057;27;20421;-76
2022/04/26 16:45:05;;;;;;;16.40;13.43;;;;;;;;;;5136072;27;20456;-79
2022/04/26 16:47:34;;;;;;;16.43;14.40;;;;;;;;;;5136222;27;20537;-77
2022/04/26 16:50:01;;;;;;;18.97;15.20;;;;;;;;;;5136300;27;20429;-76
2022/04/26 16:52:28;;;;;;;18.30;14.60;;;;;;;;;;5136412;27;20492;-78
2022/04/26 16:54:56;;;;;;;17.07;14.70;;;;;;;;;;5136136;27;20453;-78
2022/04/26 16:57:26;;;;;;;16.00;14.30;;;;;;;;;;5138339;27;20441;-78
2022/04/26 16:59:53;;;;;;;17.77;15.50;;;;;;;;;;5138203;27;20445;-80
2022/04/26 17:02:20;;;;;;;19.53;16.73;;;;;;;;;;5133894;27;21026;-79
2022/04/26 17:04:50;;;;;;;21.17;18.63;;;;;;;;;;5133963;27;20426;-78
2022/04/26 17:07:17;;;;;;;23.70;18.80;;;;;;;;;;5135459;27;20441;-79
2022/04/26 17:09:45;;;;;;;29.90;23.60;;;;;;;;;;5135645;27;20438;-79
2022/04/26 17:12:14;;;;;;;26.40;21.80;;;;;;;;;;5135931;27;20477;-81
2022/04/26 17:14:42;;;;;;;23.20;19.77;;;;;;;;;;5136232;27;20441;-78
2022/04/26 17:17:10;;;;;;;18.73;16.57;;;;;;;;;;5134444;27;20433;-79
2022/04/26 17:19:37;;;;;;;15.97;14.07;;;;;;;;;;5136752;27;20819;-78
2022/04/26 17:22:05;;;;;;;19.80;16.17;;;;;;;;;;5137911;27;20456;-80
2022/04/26 17:27:14;;;;;;;16.67;14.13;;;;;;;;;;5101796;28;20819;-78
2022/04/26 17:29:41;;;;;;;15.83;14.17;;;;;;;;;;5114456;28;20450;-77
2022/04/26 17:32:14;;;;;;;17.80;14.80;;;;;;;;;;5114393;27;20514;-78
2022/04/26 17:34:41;;;;;;;15.50;13.97;;;;;;;;;;5114979;28;20503;-77
2022/04/26 17:37:11;;;;;;;15.63;14.00;;;;;;;;;;5115530;28;20438;-78
2022/04/26 17:39:39;;;;;;;17.83;15.00;;;;;;;;;;5110483;28;20455;-77
2022/04/26 17:42:07;;;;;;;15.43;13.70;;;;;;;;;;5096412;28;20565;-77
2022/04/26 17:44:34;;;;;;;17.07;15.33;;;;;;;;;;5096441;28;20447;-77
2022/04/26 17:47:02;;;;;;;17.63;15.73;;;;;;;;;;5100133;28;20443;-78
2022/04/26 17:49:29;;;;;;;15.53;13.93;;;;;;;;;;5102014;28;20535;-78
2022/04/26 17:51:56;;;;;;;20.00;16.90;;;;;;;;;;5112962;28;20959;-78
2022/04/26 17:57:06;;;;;;;23.97;17.47;;;;;;;;;;5114213;28;20430;-79
2022/04/26 17:59:33;;;;;;;23.47;18.50;;;;;;;;;;5115290;28;20525;-78
2022/04/26 18:02:00;;;;;;;19.20;17.20;;;;;;;;;;5110628;28;20466;-78
2022/04/26 18:04:28;;;;;;;22.73;18.70;;;;;;;;;;5096618;28;20446;-79
2022/04/26 18:06:55;;;;;;;20.73;16.63;;;;;;;;;;5096087;28;20789;-78
2022/04/26 18:09:22;;;;;;;18.77;15.77;;;;;;;;;;5100052;28;20434;-79
2022/04/26 18:11:51;;;;;;;19.10;16.00;;;;;;;;;;5101380;28;20485;-79
2022/04/26 18:14:18;;;;;;;20.40;16.87;;;;;;;;;;5107752;28;20438;-78
2022/04/26 18:16:45;;;;;;;23.40;17.40;;;;;;;;;;5110577;28;20443;-77
2022/04/26 18:19:12;;;;;;;19.87;17.27;;;;;;;;;;5110480;28;20807;-80
2022/04/26 18:21:40;;;;;;;25.13;19.13;;;;;;;;;;5110992;28;20471;-77
2022/04/26 18:24:07;;;;;;;23.70;19.50;;;;;;;;;;5110574;28;20939;-78
2022/04/26 18:26:36;;;;;;;30.37;24.10;;;;;;;;;;5118123;27;20564;-77
2022/04/26 18:29:04;;;;;;;30.20;24.67;;;;;;;;;;5126727;27;21026;-76
2022/04/26 18:31:33;;;;;;;34.30;24.87;;;;;;;;;;5116546;27;20884;-77
2022/04/26 18:34:01;;;;;;;22.97;20.40;;;;;;;;;;5109984;28;20438;-78
2022/04/26 18:36:29;;;;;;;28.10;20.87;;;;;;;;;;5109360;28;20450;-77
2022/04/26 18:38:57;;;;;;;29.70;21.20;;;;;;;;;;5117637;27;20445;-78
2022/04/26 18:41:25;;;;;;;25.20;19.80;;;;;;;;;;5123157;27;20484;-78
2022/04/26 18:43:53;;;;;;;27.43;22.80;;;;;;;;;;5110804;27;20469;-81
2022/04/26 18:46:22;;;;;;;21.53;18.10;;;;;;;;;;5115060;27;20469;-80
2022/04/26 18:48:50;;;;;;;25.50;20.80;;;;;;;;;;5129012;27;20550;-79
2022/04/26 18:51:18;;;;;;;27.40;21.10;;;;;;;;;;5126350;27;20480;-79
2022/04/26 18:53:45;;;;;;;28.73;21.50;;;;;;;;;;5128108;27;20522;-79
2022/04/26 18:56:13;;;;;;;27.30;21.10;;;;;;;;;;5129132;27;20468;-78
2022/04/26 18:58:40;;;;;;;22.00;19.60;;;;;;;;;;5130300;27;20457;-79
2022/04/26 19:01:07;;;;;;;27.60;19.73;;;;;;;;;;5130550;27;20468;-78